createdAt,value
2023-01-10T00:00:54.722Z,5.33
2023-01-10T00:03:21.561Z,7.63
2023-01-10T00:05:48.500Z,11.60
2023-01-10T00:08:17.410Z,8.07
2023-01-10T00:10:44.123Z,9.33
2023-01-10T00:13:25.748Z,5.67
2023-01-10T00:15:55.726Z,10.73
2023-01-10T00:18:23.080Z,3.97
2023-01-10T00:20:49.973Z,10.63
2023-01-10T00:23:19.825Z,10.37
2023-01-10T00:25:47.011Z,8.67
2023-01-10T00:28:20.110Z,7.50
2023-01-10T00:31:01.448Z,6.80
2023-01-10T00:33:31.786Z,4.47
2023-01-10T00:35:59.801Z,7.33
2023-01-10T00:38:26.785Z,10.57
2023-01-10T00:40:53.523Z,9.10
2023-01-10T00:43:38.953Z,11.10
2023-01-10T00:46:05.806Z,8.77
2023-01-10T00:48:32.578Z,5.77
2023-01-10T00:50:59.356Z,7.43
2023-01-10T00:53:26.165Z,9.63
2023-01-10T00:55:54.971Z,7.47
2023-01-10T00:58:22.556Z,8.60
2023-01-10T01:00:50.199Z,5.57
2023-01-10T01:03:20.190Z,9.73
2023-01-10T01:05:48.822Z,8.50
2023-01-10T01:08:17.746Z,8.00
2023-01-10T01:10:44.923Z,5.53
2023-01-10T01:13:20.079Z,9.57
2023-01-10T01:15:48.219Z,9.73
2023-01-10T01:18:21.729Z,11.57
2023-01-10T01:20:53.731Z,9.20
2023-01-10T01:23:20.858Z,13.57
2023-01-10T01:25:54.320Z,8.93
2023-01-10T01:28:21.908Z,7.13
2023-01-10T01:30:49.699Z,8.80
2023-01-10T01:33:19.148Z,5.23
2023-01-10T01:35:48.484Z,9.13
2023-01-10T01:38:16.262Z,6.73
2023-01-10T01:40:43.061Z,5.87
2023-01-10T01:43:27.915Z,6.10
2023-01-10T01:45:58.195Z,8.00
2023-01-10T01:48:38.123Z,8.73
2023-01-10T01:51:20.574Z,3.90
2023-01-10T01:54:12.028Z,8.17
2023-01-10T01:57:01.214Z,6.77
2023-01-10T01:59:38.182Z,7.57
2023-01-10T02:02:31.280Z,7.50
2023-01-10T02:05:05.615Z,6.03
2023-01-10T02:07:37.821Z,7.70
2023-01-10T02:10:17.339Z,6.10
2023-01-10T02:12:47.416Z,9.43
2023-01-10T02:15:16.090Z,7.67
2023-01-10T02:17:43.047Z,4.23
2023-01-10T02:20:12.971Z,7.63
2023-01-10T02:23:16.021Z,7.90
2023-01-10T02:26:22.430Z,7.43
2023-01-10T02:29:18.511Z,10.97
2023-01-10T02:32:40.737Z,8.37
2023-01-10T02:35:19.765Z,5.97
2023-01-10T02:38:07.220Z,14.00
2023-01-10T02:41:26.773Z,8.23
2023-01-10T02:44:18.264Z,5.97
2023-01-10T02:46:49.186Z,8.70
2023-01-10T02:49:16.047Z,13.13
2023-01-10T02:51:42.767Z,9.10
2023-01-10T02:54:21.660Z,8.63
2023-01-10T02:57:30.486Z,10.90
2023-01-10T03:00:05.175Z,9.50
2023-01-10T03:02:52.864Z,9.57
2023-01-10T03:05:38.029Z,13.10
2023-01-10T03:08:32.106Z,11.93
2023-01-10T03:11:03.083Z,13.23
2023-01-10T03:13:35.078Z,8.50
2023-01-10T03:16:05.979Z,9.87
2023-01-10T03:18:48.434Z,11.00
2023-01-10T03:21:19.420Z,11.30
2023-01-10T03:23:49.852Z,8.00
2023-01-10T03:26:26.884Z,8.57
2023-01-10T03:29:05.730Z,12.63
2023-01-10T03:31:45.185Z,8.10
2023-01-10T03:34:13.131Z,11.67
2023-01-10T03:37:22.494Z,10.47
2023-01-10T03:40:03.097Z,10.03
2023-01-10T03:42:57.552Z,11.37
2023-01-10T03:45:35.072Z,12.37
2023-01-10T03:48:14.208Z,11.37
2023-01-10T03:50:44.347Z,11.97
2023-01-10T03:53:14.559Z,10.80
2023-01-10T03:55:45.380Z,5.77
2023-01-10T03:58:12.188Z,10.50
2023-01-10T04:00:40.367Z,9.10
2023-01-10T04:03:09.781Z,15.93
2023-01-10T04:05:36.660Z,13.77
2023-01-10T04:08:03.500Z,8.73
2023-01-10T04:10:30.498Z,13.60
2023-01-10T04:13:02.620Z,9.17
2023-01-10T04:15:30.178Z,7.80
2023-01-10T04:17:57.049Z,13.37
2023-01-10T04:20:27.799Z,10.10
2023-01-10T04:22:54.823Z,12.97
2023-01-10T04:25:23.175Z,8.73
2023-01-10T04:27:53.316Z,9.17
2023-01-10T04:30:20.534Z,7.60
2023-01-10T04:32:48.065Z,8.77
2023-01-10T04:35:15.261Z,12.70
2023-01-10T04:37:43.015Z,9.27
2023-01-10T04:40:10.899Z,8.30
2023-01-10T04:42:37.633Z,6.70
2023-01-10T04:45:05.477Z,7.93
2023-01-10T04:47:32.220Z,9.37
2023-01-10T04:49:58.960Z,9.87
2023-01-10T04:52:28.105Z,8.53
2023-01-10T04:54:54.857Z,13.10
2023-01-10T04:57:21.567Z,9.13
2023-01-10T04:59:49.263Z,10.83
2023-01-10T05:02:18.481Z,11.23
2023-01-10T05:07:54.228Z,9.73
2023-01-10T05:10:21.306Z,10.67
2023-01-10T05:12:48.110Z,14.67
2023-01-10T05:15:15.116Z,13.53
2023-01-10T05:17:42.029Z,11.07
2023-01-10T05:20:09.928Z,14.40
2023-01-10T05:22:36.674Z,10.30
2023-01-10T05:25:03.790Z,10.30
2023-01-10T05:27:30.595Z,13.37
2023-01-10T05:29:57.351Z,12.27
2023-01-10T05:32:33.658Z,14.03
2023-01-10T05:35:10.608Z,10.40
2023-01-10T05:37:38.151Z,14.40
2023-01-10T05:40:06.114Z,10.13
2023-01-10T05:42:42.681Z,9.93
2023-01-10T05:45:12.052Z,9.90
2023-01-10T05:47:39.071Z,16.77
2023-01-10T05:50:06.349Z,8.60
2023-01-10T05:52:33.187Z,8.23
2023-01-10T05:54:59.909Z,9.60
2023-01-10T05:57:26.666Z,9.90
2023-01-10T05:59:53.584Z,13.50
2023-01-10T06:02:20.430Z,13.83
2023-01-10T06:05:12.877Z,10.33
2023-01-10T06:07:39.565Z,19.53
2023-01-10T06:10:06.843Z,14.40
2023-01-10T06:12:33.643Z,12.80
2023-01-10T06:15:00.351Z,11.30
2023-01-10T06:17:27.181Z,11.27
2023-01-10T06:19:53.922Z,14.40
2023-01-10T06:22:31.995Z,13.97
2023-01-10T06:24:59.478Z,17.97
2023-01-10T06:27:31.750Z,14.07
2023-01-10T06:30:01.284Z,16.60
2023-01-10T06:32:28.314Z,10.73
2023-01-10T06:34:55.011Z,14.97
2023-01-10T06:37:21.730Z,16.53
2023-01-10T06:39:48.482Z,10.73
2023-01-10T06:42:15.204Z,9.47
2023-01-10T06:44:41.905Z,7.90
2023-01-10T06:47:09.066Z,9.13
2023-01-10T06:49:35.771Z,8.97
2023-01-10T06:52:02.648Z,16.57
2023-01-10T06:54:29.426Z,17.00
2023-01-10T06:57:54.451Z,19.93
2023-01-10T07:00:29.076Z,18.80
2023-01-10T07:03:00.693Z,15.70
2023-01-10T07:05:34.466Z,14.87
2023-01-10T07:08:01.552Z,10.40
2023-01-10T07:10:28.795Z,10.20
2023-01-10T07:12:59.672Z,16.77
2023-01-10T07:15:55.528Z,12.07
2023-01-10T07:18:25.500Z,15.30
2023-01-10T07:20:52.173Z,16.40
2023-01-10T07:23:18.890Z,15.80
2023-01-10T07:25:45.685Z,9.70
2023-01-10T07:28:12.678Z,13.47
2023-01-10T07:30:39.430Z,17.27
2023-01-10T07:33:06.373Z,9.97
2023-01-10T07:35:36.197Z,19.23
2023-01-10T07:38:03.263Z,12.17
2023-01-10T07:40:30.331Z,12.60
2023-01-10T07:43:02.311Z,8.87
2023-01-10T07:45:30.573Z,21.30
2023-01-10T07:48:05.081Z,14.13
2023-01-10T07:50:35.385Z,15.03
2023-01-10T07:53:05.457Z,8.30
2023-01-10T07:55:34.712Z,13.57
2023-01-10T07:58:01.842Z,13.57
2023-01-10T08:00:28.619Z,15.43
2023-01-10T08:02:56.610Z,15.80
2023-01-10T08:05:23.476Z,11.07
2023-01-10T08:07:50.307Z,17.73
2023-01-10T08:10:17.277Z,15.30
2023-01-10T08:12:44.037Z,21.33
2023-01-10T08:15:11.049Z,7.90
2023-01-10T08:17:37.800Z,13.47
2023-01-10T08:20:05.043Z,15.00
2023-01-10T08:22:31.749Z,12.83
2023-01-10T08:24:58.447Z,12.60
2023-01-10T08:27:25.178Z,16.47
2023-01-10T08:29:51.858Z,15.40
2023-01-10T08:32:18.743Z,13.33
2023-01-10T08:34:45.612Z,14.10
2023-01-10T08:37:15.338Z,12.30
2023-01-10T08:39:42.080Z,15.00
2023-01-10T08:42:08.938Z,13.93
2023-01-10T08:44:35.954Z,16.20
2023-01-10T08:47:02.936Z,14.20
2023-01-10T08:49:30.738Z,10.87
2023-01-10T08:51:57.700Z,12.03
2023-01-10T08:54:24.474Z,11.57
2023-01-10T08:56:51.231Z,13.30
2023-01-10T08:59:18.130Z,15.70
2023-01-10T09:01:45.114Z,11.40
2023-01-10T09:04:11.973Z,11.40
2023-01-10T09:06:38.754Z,16.07
2023-01-10T09:09:05.947Z,13.07
2023-01-10T09:11:32.725Z,22.93
2023-01-10T09:13:59.470Z,11.80
2023-01-10T09:16:26.773Z,12.33
2023-01-10T09:18:55.613Z,16.87
2023-01-10T09:21:22.439Z,15.83
2023-01-10T09:23:49.261Z,9.13
2023-01-10T09:26:16.099Z,21.10
2023-01-10T09:28:42.863Z,9.90
2023-01-10T09:31:11.270Z,13.97
2023-01-10T09:33:46.834Z,15.97
2023-01-10T09:36:15.669Z,14.90
2023-01-10T09:38:43.123Z,15.53
2023-01-10T09:41:34.525Z,13.07
2023-01-10T09:44:24.373Z,10.07
2023-01-10T09:46:58.101Z,16.93
2023-01-10T09:49:46.587Z,12.03
2023-01-10T09:52:38.651Z,15.40
2023-01-10T09:55:24.485Z,14.83
2023-01-10T09:57:55.443Z,10.90
2023-01-10T10:00:43.879Z,13.57
2023-01-10T10:03:33.133Z,11.83
2023-01-10T10:06:11.202Z,17.17
2023-01-10T10:08:45.409Z,13.40
2023-01-10T10:11:26.875Z,12.23
2023-01-10T10:14:13.256Z,11.27
2023-01-10T10:17:17.207Z,12.83
2023-01-10T10:20:17.635Z,13.80
2023-01-10T10:23:02.165Z,13.03
2023-01-10T10:25:55.730Z,10.97
2023-01-10T10:28:53.524Z,11.40
2023-01-10T10:31:37.951Z,10.53
2023-01-10T10:34:27.925Z,14.70
2023-01-10T10:36:59.040Z,16.83
2023-01-10T10:39:42.093Z,12.90
2023-01-10T10:42:16.556Z,14.50
2023-01-10T10:44:58.860Z,14.57
2023-01-10T10:47:33.123Z,19.07
2023-01-10T10:50:29.826Z,14.43
2023-01-10T10:52:56.941Z,16.77
2023-01-10T10:55:33.215Z,9.83
2023-01-10T10:58:03.396Z,14.50
2023-01-10T11:00:31.321Z,12.33
2023-01-10T11:03:45.710Z,14.07
2023-01-10T11:06:16.675Z,15.57
2023-01-10T11:08:46.819Z,13.87
2023-01-10T11:11:26.769Z,19.10
2023-01-10T11:14:00.736Z,11.47
2023-01-10T11:16:33.114Z,11.03
2023-01-10T11:19:29.367Z,13.53
2023-01-10T11:22:08.070Z,11.43
2023-01-10T11:24:54.044Z,10.90
2023-01-10T11:27:32.442Z,13.13
2023-01-10T11:30:17.488Z,15.50
2023-01-10T11:32:57.695Z,15.53
2023-01-10T11:35:33.212Z,11.70
2023-01-10T11:38:18.142Z,13.63
2023-01-10T11:41:03.302Z,12.13
2023-01-10T11:43:35.948Z,16.97
2023-01-10T11:49:07.841Z,12.07
2023-01-10T11:51:44.482Z,9.63
2023-01-10T11:54:26.596Z,13.03
2023-01-10T11:57:00.117Z,13.10
2023-01-10T11:59:28.333Z,13.57
2023-01-10T12:02:05.058Z,10.97
2023-01-10T12:04:41.893Z,14.87
2023-01-10T12:07:11.889Z,16.13
2023-01-10T12:09:53.933Z,11.53
2023-01-10T12:12:28.297Z,11.10
2023-01-10T12:14:59.100Z,8.73
2023-01-10T12:17:30.869Z,9.97
2023-01-10T12:20:04.332Z,10.83
2023-01-10T12:22:39.713Z,8.87
2023-01-10T12:25:22.139Z,12.07
2023-01-10T12:27:52.440Z,9.23
2023-01-10T12:30:33.260Z,9.67
2023-01-10T12:33:09.120Z,7.70
2023-01-10T12:36:19.025Z,10.87
2023-01-10T12:39:04.043Z,9.50
2023-01-10T12:42:01.396Z,7.83
2023-01-10T12:44:42.015Z,13.67
2023-01-10T12:48:02.865Z,11.70
2023-01-10T12:50:41.294Z,12.30
2023-01-10T12:53:35.305Z,10.17
2023-01-10T12:56:07.922Z,12.33
2023-01-10T12:58:49.193Z,10.30
2023-01-10T13:01:27.418Z,11.13
2023-01-10T13:04:02.221Z,12.77
2023-01-10T13:06:42.468Z,11.73
2023-01-10T13:09:19.959Z,8.07
2023-01-10T13:12:11.999Z,10.83
2023-01-10T13:14:50.377Z,8.17
2023-01-10T13:18:02.174Z,10.33
2023-01-10T13:20:38.226Z,9.37
2023-01-10T13:23:29.978Z,8.53
2023-01-10T13:26:09.467Z,11.73
2023-01-10T13:28:40.839Z,10.13
2023-01-10T13:31:32.209Z,10.00
2023-01-10T13:34:11.726Z,12.60
2023-01-10T13:37:02.808Z,9.13
2023-01-10T13:39:46.656Z,12.43
2023-01-10T13:42:56.174Z,12.73
2023-01-10T13:45:28.768Z,15.50
2023-01-10T13:47:55.612Z,9.53
2023-01-10T13:50:36.424Z,10.37
2023-01-10T13:53:04.164Z,9.53
2023-01-10T13:55:39.846Z,14.37
2023-01-10T13:58:21.127Z,10.83
2023-01-10T14:01:11.123Z,10.87
2023-01-10T14:03:58.067Z,6.53
2023-01-10T14:06:27.758Z,16.63
2023-01-10T14:08:58.583Z,7.70
2023-01-10T14:11:48.901Z,11.57
2023-01-10T14:14:32.393Z,10.50
2023-01-10T14:17:21.483Z,9.37
2023-01-10T14:20:00.494Z,16.33
2023-01-10T14:22:32.432Z,9.00
2023-01-10T14:25:07.924Z,6.40
2023-01-10T14:27:48.405Z,7.80
2023-01-10T14:30:56.686Z,8.60
2023-01-10T14:33:23.850Z,9.63
2023-01-10T14:35:56.514Z,11.13
2023-01-10T14:38:34.762Z,5.50
2023-01-10T14:45:11.860Z,12.53
2023-01-10T14:47:57.432Z,6.23
2023-01-10T14:50:32.478Z,7.13
2023-01-10T14:53:39.502Z,9.77
2023-01-10T14:56:37.335Z,3.97
2023-01-10T14:59:26.965Z,7.37
2023-01-10T15:01:59.219Z,6.37
2023-01-10T15:04:30.522Z,6.30
2023-01-10T15:07:16.802Z,5.33
2023-01-10T15:09:52.621Z,7.70
2023-01-10T15:12:23.555Z,8.30
2023-01-10T15:15:08.012Z,6.57
2023-01-10T15:18:33.684Z,4.83
2023-01-10T15:21:01.328Z,4.90
2023-01-10T15:23:40.659Z,7.50
2023-01-10T15:26:33.425Z,3.20
2023-01-10T15:29:20.871Z,8.43
2023-01-10T15:31:47.985Z,3.93
2023-01-10T15:34:21.965Z,8.90
2023-01-10T15:37:01.372Z,4.47
2023-01-10T15:39:37.184Z,6.63
2023-01-10T15:42:09.718Z,6.33
2023-01-10T15:44:55.338Z,4.50
2023-01-10T15:47:41.313Z,5.50
2023-01-10T15:50:28.606Z,3.63
2023-01-10T15:53:06.075Z,2.37
2023-01-10T15:58:43.646Z,3.33
2023-01-10T16:01:15.645Z,3.47
2023-01-10T16:03:52.715Z,1.87
2023-01-10T16:06:27.306Z,2.17
2023-01-10T16:08:58.125Z,1.37
2023-01-10T16:12:06.614Z,1.33
2023-01-10T16:14:36.231Z,2.90
2023-01-10T16:17:06.988Z,2.27
2023-01-10T16:19:34.644Z,1.93
2023-01-10T16:22:01.814Z,1.73
2023-01-10T16:24:32.409Z,1.17
2023-01-10T16:27:03.451Z,1.27
2023-01-10T16:29:30.204Z,2.17
2023-01-10T16:31:57.121Z,1.03
2023-01-10T16:34:25.900Z,1.97
2023-01-10T16:36:53.098Z,1.90
2023-01-10T16:39:23.401Z,4.00
2023-01-10T16:42:08.919Z,2.33
2023-01-10T16:44:35.880Z,1.73
2023-01-10T16:47:06.522Z,3.00
2023-01-10T16:49:33.673Z,1.07
2023-01-10T16:52:00.417Z,1.40
2023-01-10T16:54:28.171Z,1.63
2023-01-10T16:56:55.712Z,1.40
2023-01-10T16:59:22.511Z,1.93
2023-01-10T17:01:56.429Z,1.63
2023-01-10T17:04:35.464Z,1.30
2023-01-10T17:07:02.303Z,1.93
2023-01-10T17:09:31.160Z,1.63
2023-01-10T17:12:10.224Z,2.40
2023-01-10T17:14:38.786Z,0.93
2023-01-10T17:17:05.745Z,0.60
2023-01-10T17:19:32.711Z,0.70
2023-01-10T17:22:00.351Z,2.93
2023-01-10T17:24:29.544Z,3.17
2023-01-10T17:26:56.378Z,1.17
2023-01-10T17:29:23.504Z,1.10
2023-01-10T17:31:50.569Z,2.20
2023-01-10T17:34:17.354Z,0.80
2023-01-10T17:36:44.055Z,0.87
2023-01-10T17:39:11.387Z,1.40
2023-01-10T17:41:38.280Z,1.20
2023-01-10T17:44:05.204Z,0.97
2023-01-10T17:46:32.163Z,2.33
2023-01-10T17:48:58.934Z,1.23
2023-01-10T17:51:26.880Z,0.50
2023-01-10T17:53:55.623Z,0.60
2023-01-10T17:56:23.331Z,0.67
2023-01-10T17:58:51.688Z,0.70
2023-01-10T18:01:25.227Z,1.40
2023-01-10T18:03:53.267Z,1.83
2023-01-10T18:06:25.305Z,0.83
2023-01-10T18:08:53.382Z,1.73
2023-01-10T18:11:21.708Z,0.77
2023-01-10T18:13:48.548Z,3.33
2023-01-10T18:16:15.285Z,0.60
2023-01-10T18:18:42.072Z,0.90
2023-01-10T18:21:19.124Z,1.60
2023-01-10T18:23:46.880Z,1.00
2023-01-10T18:26:13.814Z,0.70
2023-01-10T18:28:43.858Z,1.37
2023-01-10T18:31:17.096Z,2.33
2023-01-10T18:33:45.661Z,0.70
2023-01-10T18:36:19.021Z,0.80
2023-01-10T18:38:47.746Z,4.23
2023-01-10T18:41:16.674Z,1.40
2023-01-10T18:43:43.513Z,1.27
2023-01-10T18:46:14.158Z,1.23
2023-01-10T18:48:41.032Z,0.87
2023-01-10T18:51:09.970Z,1.00
2023-01-10T18:53:36.691Z,0.70
2023-01-10T18:56:05.644Z,0.87
2023-01-10T18:58:39.219Z,1.23
2023-01-10T19:01:16.153Z,0.80
2023-01-10T19:03:43.297Z,1.07
2023-01-10T19:06:14.533Z,1.40
2023-01-10T19:08:42.671Z,1.10
2023-01-10T19:11:14.495Z,1.37
2023-01-10T19:13:43.751Z,5.03
2023-01-10T19:16:24.064Z,1.53
2023-01-10T19:19:00.859Z,0.87
2023-01-10T19:21:30.462Z,1.10
2023-01-10T19:24:02.040Z,2.17
2023-01-10T19:26:29.062Z,1.13
2023-01-10T19:28:56.086Z,0.77
2023-01-10T19:31:29.095Z,1.00
2023-01-10T19:33:59.707Z,1.13
2023-01-10T19:36:26.960Z,1.53
2023-01-10T19:38:58.741Z,0.90
2023-01-10T19:41:27.604Z,0.80
2023-01-10T19:44:00.162Z,1.13
2023-01-10T19:46:28.996Z,2.20
2023-01-10T19:48:56.398Z,1.50
2023-01-10T19:51:23.466Z,1.07
2023-01-10T19:53:50.344Z,0.70
2023-01-10T19:56:21.902Z,0.60
2023-01-10T19:58:50.068Z,0.80
2023-01-10T20:01:23.128Z,0.60
2023-01-10T20:03:50.547Z,0.60
2023-01-10T20:06:22.540Z,1.00
2023-01-10T20:08:49.595Z,0.90
2023-01-10T20:11:18.080Z,0.70
2023-01-10T20:13:45.339Z,0.60
2023-01-10T20:16:16.200Z,1.17
2023-01-10T20:18:43.672Z,1.27
2023-01-10T20:21:13.325Z,0.50
2023-01-10T20:23:41.555Z,1.13
2023-01-10T20:26:13.697Z,0.50
2023-01-10T20:28:41.620Z,0.50
2023-01-10T20:31:14.384Z,0.50
2023-01-10T20:33:41.290Z,1.63
2023-01-10T20:36:12.812Z,0.80
2023-01-10T20:38:40.116Z,1.97
2023-01-10T20:41:12.551Z,1.17
2023-01-10T20:43:39.874Z,0.80
2023-01-10T20:46:16.576Z,0.60
2023-01-10T20:48:43.703Z,0.50
2023-01-10T20:51:16.062Z,0.77
2023-01-10T20:53:44.140Z,0.60
2023-01-10T20:56:19.012Z,1.10
2023-01-10T20:58:46.522Z,0.70
2023-01-10T21:01:28.692Z,1.47
2023-01-10T21:04:00.070Z,0.67
2023-01-10T21:06:26.928Z,0.93
2023-01-10T21:08:54.020Z,1.00
2023-01-10T21:11:21.548Z,0.50
2023-01-10T21:13:48.676Z,0.40
2023-01-10T21:16:19.793Z,0.50
2023-01-10T21:18:47.592Z,0.73
2023-01-10T21:21:19.275Z,0.63
2023-01-10T21:23:46.008Z,0.60
2023-01-10T21:26:15.423Z,0.40
2023-01-10T21:28:47.190Z,0.50
2023-01-10T21:31:17.324Z,1.63
2023-01-10T21:33:44.933Z,0.70
2023-01-10T21:36:13.464Z,0.80
2023-01-10T21:38:41.037Z,0.50
2023-01-10T21:41:38.354Z,0.60
2023-01-10T21:44:06.818Z,0.60
2023-01-10T21:46:33.692Z,0.40
2023-01-10T21:49:04.243Z,0.60
2023-01-10T21:51:31.044Z,0.57
2023-01-10T21:53:57.806Z,0.53
2023-01-10T21:56:24.590Z,0.53
2023-01-10T21:58:52.273Z,0.40
2023-01-10T22:01:19.085Z,1.13
2023-01-10T22:03:46.423Z,1.03
2023-01-10T22:06:13.711Z,0.50
2023-01-10T22:08:41.278Z,0.50
2023-01-10T22:11:10.577Z,0.50
2023-01-10T22:13:37.777Z,1.70
2023-01-10T22:16:04.916Z,0.90
2023-01-10T22:18:32.089Z,1.20
2023-01-10T22:20:59.648Z,5.40
2023-01-10T22:23:29.363Z,1.53
2023-01-10T22:26:08.138Z,0.63
2023-01-10T22:28:35.173Z,0.83
2023-01-10T22:31:02.917Z,0.83
2023-01-10T22:33:32.916Z,1.90
2023-01-10T22:36:07.062Z,0.53
2023-01-10T22:38:34.425Z,0.70
2023-01-10T22:41:12.426Z,0.97
2023-01-10T22:43:39.759Z,0.70
2023-01-10T22:46:07.602Z,0.80
2023-01-10T22:48:38.518Z,1.20
2023-01-10T22:51:05.623Z,0.70
2023-01-10T22:53:32.638Z,2.47
2023-01-10T22:56:01.337Z,0.67
2023-01-10T22:58:31.143Z,0.50
2023-01-10T23:00:57.967Z,2.20
2023-01-10T23:03:25.315Z,1.50
2023-01-10T23:05:57.005Z,0.40
2023-01-10T23:08:26.080Z,0.80
2023-01-10T23:10:54.225Z,1.07
2023-01-10T23:13:23.919Z,0.60
2023-01-10T23:16:01.865Z,1.47
2023-01-10T23:18:29.586Z,1.33
2023-01-10T23:20:56.879Z,0.83
2023-01-10T23:23:25.591Z,0.50
2023-01-10T23:26:02.299Z,0.40
2023-01-10T23:28:35.716Z,0.60
2023-01-10T23:31:04.047Z,0.40
2023-01-10T23:33:32.422Z,0.97
2023-01-10T23:36:00.383Z,0.40
2023-01-10T23:38:28.131Z,0.40
2023-01-10T23:40:55.495Z,0.30
2023-01-10T23:43:23.621Z,0.30
2023-01-10T23:45:50.963Z,1.90
2023-01-10T23:48:18.296Z,1.70
2023-01-10T23:50:48.683Z,0.37
2023-01-10T23:53:15.670Z,0.40
2023-01-10T23:55:42.669Z,0.60
2023-01-10T23:58:09.436Z,0.40
